Pagrindinis puslapis
METAR-TAF:

METAR-TAF

Oro uostai :

El-Tor, Egiptas

platuma: 28-14N, ilguma: 032-37E, Aukštis: 21 m

Dabartinis oras

Ataskaita buvo paskelbta 17 valandos ir 56 minutes, ne 05:00 UTC
Vėjas 15 kt iš Vakarų/Šiaurės Vakarų
Temperatūra 27°C
Drėgmė 89%
Slėgis 1010 hPa
Matomumas 10 km arba daugiau
nėra debesų žemiau 1500 m ir nėra kamuolinių lietaus debesų

METAR: HETR 240500Z 30015KT CAVOK 27/25 Q1010

Laikas: 00:56 (22:56 UTC)

Prognozė

Ataskaita buvo paskelbta 5 valandos ir 56 minutes, ne 17:00 UTC
Prognozė galioja nuo 24 metu 18 UTC su 25 metu 24 UTC
Vėjas 10 kt iš Šiaurės Vakarų su gūsio iki 24 kt
Matomumas 10 km arba daugiau
nėra debesų žemiau 1500 m ir nėra kamuolinių lietaus debesų

TAF: HETR 241700Z 2418/2524 32010G24KT CAVOK

Orai ataskaitas ir orų prognozės (METAR, TAF).

turimą stotys yra geltonos ir raudonos taškus žemėlapyje.

Perkelti pele per norėdami pamatyti stoties vardą.

Tada spustelėkite, norėdami matyti oro stebėjimo ir prognozės.

Norėdami pakeisti žemėlapį: spustelėkite ant žalios mygtukų su juodo kryžiaus žemyn,; žalią mygtuką su brūkšneliu, jei norite nutolinti; arba žalių rodyklių gretimoms žemėlapius.


METAR-TAF: